createdAt,value
2022-11-17T00:02:19.318Z,12.36
2022-11-17T00:04:45.999Z,12.30
2022-11-17T00:07:12.622Z,12.28
2022-11-17T00:09:39.241Z,12.36
2022-11-17T00:12:27.270Z,12.31
2022-11-17T00:14:57.945Z,12.25
2022-11-17T00:17:24.482Z,12.33
2022-11-17T00:20:09.736Z,12.30
2022-11-17T00:22:36.237Z,12.35
2022-11-17T00:25:02.798Z,12.40
2022-11-17T00:27:29.285Z,12.40
2022-11-17T00:29:56.912Z,12.34
2022-11-17T00:32:42.007Z,12.34
2022-11-17T00:35:08.609Z,12.38
2022-11-17T00:38:00.249Z,12.44
2022-11-17T00:40:27.162Z,12.46
2022-11-17T00:42:53.670Z,12.54
2022-11-17T00:45:20.208Z,12.51
2022-11-17T00:47:47.781Z,12.56
2022-11-17T00:50:14.679Z,12.56
2022-11-17T00:52:41.195Z,12.53
2022-11-17T00:55:08.040Z,12.53
2022-11-17T00:57:34.629Z,12.51
2022-11-17T01:00:01.193Z,12.57
2022-11-17T01:02:27.712Z,12.53
2022-11-17T01:04:54.217Z,12.50
2022-11-17T01:07:22.686Z,12.61
2022-11-17T01:09:49.266Z,12.61
2022-11-17T01:12:15.766Z,12.60
2022-11-17T01:14:42.355Z,12.59
2022-11-17T01:17:09.052Z,12.57
2022-11-17T01:19:35.572Z,12.54
2022-11-17T01:22:02.055Z,12.46
2022-11-17T01:24:28.633Z,12.44
2022-11-17T01:26:55.120Z,12.42
2022-11-17T01:29:21.654Z,12.44
2022-11-17T01:31:51.609Z,12.57
2022-11-17T01:34:18.675Z,12.51
2022-11-17T01:37:04.029Z,12.60
2022-11-17T01:39:31.359Z,12.55
2022-11-17T01:41:58.231Z,12.54
2022-11-17T01:44:44.483Z,12.61
2022-11-17T01:47:20.695Z,12.65
2022-11-17T01:49:49.806Z,12.49
2022-11-17T01:52:16.511Z,12.45
2022-11-17T01:54:46.433Z,12.47
2022-11-17T01:57:19.474Z,12.55
2022-11-17T01:59:52.346Z,12.67
2022-11-17T02:02:19.836Z,12.58
2022-11-17T02:05:16.135Z,12.58
2022-11-17T02:07:43.108Z,12.70
2022-11-17T02:10:09.656Z,12.68
2022-11-17T02:12:36.793Z,12.82
2022-11-17T02:15:04.227Z,12.88
2022-11-17T02:17:37.674Z,12.44
2022-11-17T02:20:17.697Z,12.77
2022-11-17T02:23:24.067Z,12.74
2022-11-17T02:26:00.164Z,12.73
2022-11-17T02:28:30.292Z,12.64
2022-11-17T02:31:18.378Z,12.70
2022-11-17T02:34:03.226Z,12.51
2022-11-17T02:36:29.747Z,12.65
2022-11-17T02:39:11.042Z,12.70
2022-11-17T02:41:41.852Z,12.76
2022-11-17T02:44:15.950Z,12.77
2022-11-17T02:46:51.145Z,12.85
2022-11-17T02:49:23.907Z,12.93
2022-11-17T02:51:53.922Z,12.89
2022-11-17T02:54:22.933Z,13.13
2022-11-17T02:56:49.494Z,12.81
2022-11-17T02:59:21.075Z,12.99
2022-11-17T03:02:25.007Z,13.06
2022-11-17T03:05:09.702Z,13.18
2022-11-17T03:07:45.240Z,13.17
2022-11-17T03:10:20.281Z,13.14
2022-11-17T03:13:08.793Z,13.23
2022-11-17T03:15:41.501Z,13.20
2022-11-17T03:18:29.500Z,13.33
2022-11-17T03:21:09.494Z,13.37
2022-11-17T03:24:00.703Z,13.29
2022-11-17T03:26:33.515Z,13.28
2022-11-17T03:29:03.380Z,13.23
2022-11-17T03:31:32.209Z,13.25
2022-11-17T03:34:00.877Z,13.22
2022-11-17T03:36:34.796Z,13.27
2022-11-17T03:39:11.457Z,13.29
2022-11-17T03:41:42.786Z,13.25
2022-11-17T03:44:11.117Z,13.25
2022-11-17T03:46:39.065Z,13.19
2022-11-17T03:49:39.661Z,13.28
2022-11-17T03:52:06.910Z,13.34
2022-11-17T03:54:35.189Z,13.37
2022-11-17T03:58:16.484Z,13.41
2022-11-17T04:00:44.028Z,13.51
2022-11-17T04:03:10.529Z,13.53
2022-11-17T04:05:37.059Z,13.48
2022-11-17T04:08:03.598Z,13.48
2022-11-17T04:10:30.200Z,13.55
2022-11-17T04:13:15.315Z,13.55
2022-11-17T04:15:57.229Z,13.61
2022-11-17T04:18:23.849Z,13.48
2022-11-17T04:20:52.753Z,13.56
2022-11-17T04:23:19.959Z,13.56
2022-11-17T04:26:10.241Z,13.63
2022-11-17T04:28:40.026Z,13.63
2022-11-17T04:31:13.994Z,13.66
2022-11-17T04:33:41.620Z,13.75
2022-11-17T04:36:09.506Z,13.70
2022-11-17T04:38:36.348Z,13.69
2022-11-17T04:41:26.969Z,13.81
2022-11-17T04:43:53.862Z,13.75
2022-11-17T04:46:21.684Z,13.77
2022-11-17T04:48:48.652Z,13.75
2022-11-17T04:51:16.733Z,13.76
2022-11-17T04:53:44.212Z,13.75
2022-11-17T04:56:11.172Z,13.83
2022-11-17T04:58:37.733Z,13.77
2022-11-17T05:01:13.247Z,13.84
2022-11-17T05:03:59.993Z,13.88
2022-11-17T05:06:37.344Z,13.81
2022-11-17T05:09:10.463Z,13.76
2022-11-17T05:11:55.534Z,13.76
2022-11-17T05:14:25.077Z,13.83
2022-11-17T05:17:11.955Z,13.83
2022-11-17T05:19:41.150Z,13.88
2022-11-17T05:22:27.925Z,13.81
2022-11-17T05:24:54.706Z,13.98
2022-11-17T05:27:22.739Z,13.90
2022-11-17T05:29:49.775Z,13.94
2022-11-17T05:32:16.639Z,13.82
2022-11-17T05:34:43.258Z,13.61
2022-11-17T05:37:10.306Z,13.79
2022-11-17T05:39:36.839Z,13.80
2022-11-17T05:42:03.533Z,13.47
2022-11-17T05:44:30.091Z,13.47
2022-11-17T05:46:56.620Z,13.42
2022-11-17T05:49:23.964Z,13.53
2022-11-17T05:51:52.953Z,13.66
2022-11-17T05:54:20.250Z,13.67
2022-11-17T05:56:52.510Z,13.52
2022-11-17T05:59:28.040Z,13.57
2022-11-17T06:02:06.776Z,13.64
2022-11-17T06:04:33.366Z,13.61
2022-11-17T06:07:01.235Z,13.67
2022-11-17T06:09:31.313Z,13.64
2022-11-17T06:12:04.103Z,13.75
2022-11-17T06:14:32.708Z,13.71
2022-11-17T06:17:09.266Z,13.57
2022-11-17T06:19:41.731Z,13.41
2022-11-17T06:22:13.308Z,13.66
2022-11-17T06:24:43.087Z,13.75
2022-11-17T06:27:14.600Z,13.87
2022-11-17T06:29:44.996Z,13.86
2022-11-17T06:32:16.541Z,13.82
2022-11-17T06:34:48.034Z,13.87
2022-11-17T06:37:18.696Z,13.89
2022-11-17T06:39:45.211Z,14.00
2022-11-17T06:42:12.153Z,13.81
2022-11-17T06:44:39.224Z,13.85
2022-11-17T06:47:05.924Z,13.84
2022-11-17T06:49:32.469Z,13.89
2022-11-17T06:51:59.015Z,13.87
2022-11-17T06:54:25.656Z,13.82
2022-11-17T06:56:52.527Z,13.78
2022-11-17T06:59:19.146Z,13.87
2022-11-17T07:01:45.737Z,13.97
2022-11-17T07:04:12.337Z,13.99
2022-11-17T07:06:39.159Z,13.90
2022-11-17T07:09:05.771Z,14.02
2022-11-17T07:11:36.247Z,14.07
2022-11-17T07:14:03.017Z,14.09
2022-11-17T07:16:30.776Z,14.01
2022-11-17T07:18:59.391Z,13.96
2022-11-17T07:21:26.191Z,13.99
2022-11-17T07:23:52.837Z,14.09
2022-11-17T07:26:19.556Z,14.10
2022-11-17T07:28:46.156Z,14.07
2022-11-17T07:31:12.735Z,13.84
2022-11-17T07:33:39.282Z,13.94
2022-11-17T07:36:11.105Z,13.91
2022-11-17T07:38:39.983Z,13.90
2022-11-17T07:41:09.128Z,13.97
2022-11-17T07:43:36.961Z,14.16
2022-11-17T07:46:21.634Z,14.33
2022-11-17T07:48:48.283Z,14.31
2022-11-17T07:51:15.906Z,14.29
2022-11-17T07:53:42.482Z,14.30
2022-11-17T07:56:11.356Z,14.46
2022-11-17T07:58:39.211Z,14.46
2022-11-17T08:01:07.583Z,14.44
2022-11-17T08:03:34.681Z,14.51
2022-11-17T08:06:03.023Z,14.60
2022-11-17T08:08:29.615Z,14.57
2022-11-17T08:10:56.235Z,14.31
2022-11-17T08:13:24.255Z,14.33
2022-11-17T08:15:56.788Z,14.42
2022-11-17T08:18:23.590Z,14.35
2022-11-17T08:20:50.224Z,14.37
2022-11-17T08:23:16.943Z,14.33
2022-11-17T08:25:44.091Z,14.16
2022-11-17T08:28:10.736Z,14.28
2022-11-17T08:30:37.301Z,14.35
2022-11-17T08:33:03.995Z,14.31
2022-11-17T08:35:37.108Z,14.34
2022-11-17T08:38:04.380Z,14.60
2022-11-17T08:40:31.006Z,14.65
2022-11-17T08:43:01.410Z,14.82
2022-11-17T08:45:28.734Z,14.83
2022-11-17T08:47:58.418Z,14.92
2022-11-17T08:50:25.477Z,15.06
2022-11-17T08:52:53.008Z,15.27
2022-11-17T08:55:19.874Z,15.40
2022-11-17T08:57:46.568Z,15.59
2022-11-17T09:00:13.741Z,15.82
2022-11-17T09:02:40.523Z,16.06
2022-11-17T09:05:07.637Z,16.22
2022-11-17T09:07:35.659Z,16.35
2022-11-17T09:10:04.511Z,16.41
2022-11-17T09:12:31.640Z,16.40
2022-11-17T09:14:58.217Z,16.49
2022-11-17T09:17:24.797Z,16.51
2022-11-17T09:19:51.373Z,16.52
2022-11-17T09:22:18.027Z,16.63
2022-11-17T09:24:44.541Z,16.69
2022-11-17T09:27:11.233Z,16.70
2022-11-17T09:29:37.754Z,16.76
2022-11-17T09:32:04.416Z,16.87
2022-11-17T09:34:31.123Z,17.05
2022-11-17T09:36:57.795Z,17.25
2022-11-17T09:39:24.389Z,17.49
2022-11-17T09:41:54.982Z,17.73
2022-11-17T09:44:24.488Z,17.93
2022-11-17T09:47:01.888Z,18.15
2022-11-17T09:49:39.847Z,18.38
2022-11-17T09:52:17.549Z,18.57
2022-11-17T09:54:52.078Z,18.58
2022-11-17T09:57:27.250Z,18.58
2022-11-17T10:00:05.915Z,18.61
2022-11-17T10:02:33.101Z,18.71
2022-11-17T10:05:00.602Z,18.89
2022-11-17T10:07:30.459Z,18.94
2022-11-17T10:10:00.089Z,19.17
2022-11-17T10:12:36.220Z,19.22
2022-11-17T10:15:20.643Z,19.39
2022-11-17T10:17:47.267Z,19.48
2022-11-17T10:20:16.975Z,19.39
2022-11-17T10:22:45.320Z,19.49
2022-11-17T10:25:22.238Z,19.32
2022-11-17T10:27:53.973Z,19.27
2022-11-17T10:30:24.129Z,19.39
2022-11-17T10:32:56.010Z,19.39
2022-11-17T10:35:26.818Z,19.39
2022-11-17T10:38:13.330Z,19.47
2022-11-17T10:40:39.879Z,19.46
2022-11-17T10:43:12.482Z,19.59
2022-11-17T10:45:49.118Z,19.79
2022-11-17T10:48:33.317Z,19.96
2022-11-17T10:51:01.381Z,20.02
2022-11-17T10:53:42.981Z,20.26
2022-11-17T10:56:18.897Z,20.37
2022-11-17T10:59:12.604Z,20.56
2022-11-17T11:01:42.271Z,20.72
2022-11-17T11:04:27.082Z,21.32
2022-11-17T11:07:21.468Z,22.20
2022-11-17T11:10:17.575Z,22.28
2022-11-17T11:12:59.235Z,21.98
2022-11-17T11:15:32.928Z,21.65
2022-11-17T11:17:59.506Z,21.50
2022-11-17T11:20:47.455Z,21.41
2022-11-17T11:23:43.239Z,21.29
2022-11-17T11:26:41.308Z,20.83
2022-11-17T11:29:46.797Z,20.91
2022-11-17T11:32:53.766Z,20.84
2022-11-17T11:35:36.518Z,20.39
2022-11-17T11:38:15.139Z,20.17
2022-11-17T11:40:50.899Z,20.15
2022-11-17T11:43:59.364Z,19.98
2022-11-17T11:46:51.504Z,19.66
2022-11-17T11:49:34.530Z,19.83
2022-11-17T11:52:06.227Z,19.46
2022-11-17T11:54:40.418Z,19.52
2022-11-17T11:57:12.434Z,19.51
2022-11-17T11:59:49.154Z,19.39
2022-11-17T12:02:24.022Z,19.52
2022-11-17T12:04:55.202Z,19.69
2022-11-17T12:07:35.476Z,19.86
2022-11-17T12:10:54.388Z,19.83
2022-11-17T12:13:23.852Z,19.57
2022-11-17T12:15:50.745Z,19.74
2022-11-17T12:18:17.279Z,19.79
2022-11-17T12:20:55.559Z,19.81
2022-11-17T12:23:38.299Z,19.55
2022-11-17T12:26:05.198Z,18.96
2022-11-17T12:28:36.085Z,19.56
2022-11-17T12:31:10.170Z,18.67
2022-11-17T12:33:51.941Z,19.36
2022-11-17T12:36:30.203Z,18.72
2022-11-17T12:38:59.098Z,19.27
2022-11-17T12:41:47.076Z,19.67
2022-11-17T12:44:32.113Z,19.68
2022-11-17T12:47:10.155Z,19.35
2022-11-17T12:50:12.569Z,19.71
2022-11-17T12:52:47.261Z,19.90
2022-11-17T12:55:28.782Z,20.01
2022-11-17T12:58:10.196Z,19.73
2022-11-17T13:01:09.672Z,19.97
2022-11-17T13:03:45.630Z,19.94
2022-11-17T13:09:11.765Z,20.02
2022-11-17T13:11:38.689Z,19.98
2022-11-17T13:14:16.370Z,20.00
2022-11-17T13:16:51.024Z,19.65
2022-11-17T13:19:37.225Z,19.65
2022-11-17T13:22:16.306Z,19.33
2022-11-17T13:24:45.897Z,19.54
2022-11-17T13:27:29.276Z,19.34
2022-11-17T13:30:28.069Z,19.55
2022-11-17T13:32:56.400Z,19.12
2022-11-17T13:35:27.305Z,19.32
2022-11-17T13:38:12.233Z,19.73
2022-11-17T13:40:40.782Z,19.88
2022-11-17T13:43:13.050Z,20.04
2022-11-17T13:45:40.409Z,20.05
2022-11-17T13:48:06.981Z,20.45
2022-11-17T13:50:37.227Z,20.08
2022-11-17T13:53:24.177Z,20.15
2022-11-17T13:55:51.833Z,19.89
2022-11-17T13:58:41.106Z,19.49
2022-11-17T14:01:11.762Z,19.87
2022-11-17T14:03:40.078Z,19.91
2022-11-17T14:06:14.336Z,19.90
2022-11-17T14:09:01.130Z,19.85
2022-11-17T14:11:29.324Z,19.71
2022-11-17T14:14:01.035Z,19.83
2022-11-17T14:16:34.601Z,19.75
2022-11-17T14:19:05.682Z,19.88
2022-11-17T14:21:32.617Z,19.88
2022-11-17T14:24:03.438Z,19.86
2022-11-17T14:26:30.706Z,19.92
2022-11-17T14:29:02.176Z,19.79
2022-11-17T14:31:30.146Z,19.74
2022-11-17T14:33:57.098Z,18.68
2022-11-17T14:36:23.951Z,19.12
2022-11-17T14:38:50.729Z,19.27
2022-11-17T14:41:18.661Z,19.17
2022-11-17T14:43:45.453Z,18.88
2022-11-17T14:46:24.623Z,18.64
2022-11-17T14:48:52.620Z,19.08
2022-11-17T14:51:20.836Z,19.02
2022-11-17T14:53:47.903Z,19.12
2022-11-17T14:56:19.488Z,19.13
2022-11-17T14:58:47.413Z,19.29
2022-11-17T15:01:19.921Z,19.35
2022-11-17T15:03:46.863Z,19.26
2022-11-17T15:06:19.312Z,19.28
2022-11-17T15:08:47.071Z,19.28
2022-11-17T15:11:17.487Z,19.16
2022-11-17T15:13:44.505Z,19.18
2022-11-17T15:16:11.886Z,19.19
2022-11-17T15:18:42.487Z,19.09
2022-11-17T15:21:11.064Z,19.04
2022-11-17T15:23:39.757Z,18.98
2022-11-17T15:26:08.762Z,18.85
2022-11-17T15:28:35.433Z,18.82
2022-11-17T15:31:13.259Z,18.68
2022-11-17T15:33:44.259Z,18.60
2022-11-17T15:36:13.193Z,18.46
2022-11-17T15:38:40.336Z,18.28
2022-11-17T15:41:08.379Z,18.24
2022-11-17T15:43:37.498Z,18.15
2022-11-17T15:46:10.198Z,18.08
2022-11-17T15:48:44.369Z,17.86
2022-11-17T15:51:16.107Z,17.90
2022-11-17T15:53:44.019Z,17.76
2022-11-17T15:56:15.282Z,17.73
2022-11-17T15:58:43.110Z,17.62
2022-11-17T16:01:12.286Z,17.23
2022-11-17T16:03:40.937Z,17.24
2022-11-17T16:06:08.497Z,17.26
2022-11-17T16:08:35.355Z,17.06
2022-11-17T16:11:02.429Z,16.93
2022-11-17T16:13:32.866Z,16.80
2022-11-17T16:15:59.728Z,16.82
2022-11-17T16:18:26.646Z,16.79
2022-11-17T16:20:53.303Z,16.79
2022-11-17T16:23:19.950Z,16.73
2022-11-17T16:25:48.334Z,16.84
2022-11-17T16:28:16.510Z,16.73
2022-11-17T16:30:43.270Z,16.66
2022-11-17T16:33:16.366Z,16.69
2022-11-17T16:35:45.347Z,16.73
2022-11-17T16:38:16.820Z,16.74
2022-11-17T16:40:43.725Z,16.62
2022-11-17T16:43:12.356Z,16.58
2022-11-17T16:45:44.393Z,16.49
2022-11-17T16:48:12.368Z,16.44
2022-11-17T16:50:41.015Z,16.48
2022-11-17T16:53:07.713Z,16.41
2022-11-17T16:55:37.575Z,16.42
2022-11-17T16:58:05.834Z,16.38
2022-11-17T17:00:34.767Z,16.48
2022-11-17T17:03:01.991Z,16.43
2022-11-17T17:05:31.471Z,16.49
2022-11-17T17:07:58.073Z,16.49
2022-11-17T17:10:24.665Z,16.54
2022-11-17T17:12:51.247Z,16.53
2022-11-17T17:15:17.951Z,16.46
2022-11-17T17:17:44.492Z,16.37
2022-11-17T17:20:11.357Z,16.37
2022-11-17T17:22:37.905Z,16.29
2022-11-17T17:25:04.911Z,16.26
2022-11-17T17:27:31.583Z,16.22
2022-11-17T17:29:58.190Z,16.30
2022-11-17T17:32:24.819Z,16.30
2022-11-17T17:34:51.616Z,16.38
2022-11-17T17:37:18.342Z,16.23
2022-11-17T17:39:45.135Z,16.28
2022-11-17T17:42:12.455Z,16.27
2022-11-17T17:44:38.986Z,16.22
2022-11-17T17:47:05.629Z,16.17
2022-11-17T17:49:32.326Z,16.04
2022-11-17T17:51:58.894Z,16.11
2022-11-17T17:54:26.174Z,15.98
2022-11-17T17:56:53.006Z,15.96
2022-11-17T17:59:20.025Z,15.93
2022-11-17T18:01:47.540Z,15.98
2022-11-17T18:04:16.087Z,15.89
2022-11-17T18:06:47.285Z,15.79
2022-11-17T18:09:15.574Z,15.80
2022-11-17T18:11:45.925Z,15.67
2022-11-17T18:14:13.282Z,15.71
2022-11-17T18:16:40.244Z,15.50
2022-11-17T18:19:09.106Z,15.60
2022-11-17T18:21:36.172Z,15.55
2022-11-17T18:24:03.784Z,15.59
2022-11-17T18:26:35.923Z,15.44
2022-11-17T18:29:05.620Z,15.43
2022-11-17T18:31:34.486Z,15.41
2022-11-17T18:34:03.636Z,15.42
2022-11-17T18:36:30.845Z,15.48
2022-11-17T18:39:00.311Z,15.54
2022-11-17T18:41:27.475Z,15.53
2022-11-17T18:43:54.817Z,15.52
2022-11-17T18:46:23.314Z,15.36
2022-11-17T18:48:51.872Z,15.31
2022-11-17T18:51:24.155Z,15.45
2022-11-17T18:53:52.361Z,15.38
2022-11-17T18:56:21.650Z,15.35
2022-11-17T18:58:48.340Z,15.32
2022-11-17T19:01:22.266Z,15.38
2022-11-17T19:03:49.781Z,15.41
2022-11-17T19:06:18.091Z,15.42
2022-11-17T19:08:45.180Z,15.43
2022-11-17T19:11:12.342Z,15.45
2022-11-17T19:13:41.180Z,15.44
2022-11-17T19:16:10.647Z,15.45
2022-11-17T19:18:37.953Z,15.58
2022-11-17T19:21:07.862Z,15.65
2022-11-17T19:23:36.033Z,15.65
2022-11-17T19:26:05.144Z,15.64
2022-11-17T19:28:32.631Z,15.70
2022-11-17T19:31:07.670Z,15.70
2022-11-17T19:33:36.541Z,15.74
2022-11-17T19:36:17.888Z,15.79
2022-11-17T19:38:47.105Z,15.86
2022-11-17T19:41:15.810Z,15.87
2022-11-17T19:43:45.485Z,15.77
2022-11-17T19:46:16.949Z,15.87
2022-11-17T19:48:44.966Z,15.81
2022-11-17T19:51:13.207Z,15.87
2022-11-17T19:53:40.013Z,15.99
2022-11-17T19:56:07.110Z,15.96
2022-11-17T19:58:33.809Z,15.97
2022-11-17T20:01:07.576Z,15.97
2022-11-17T20:03:34.885Z,15.96
2022-11-17T20:06:01.887Z,15.96
2022-11-17T20:08:29.769Z,15.91
2022-11-17T20:11:10.315Z,15.81
2022-11-17T20:13:37.633Z,15.62
2022-11-17T20:16:11.808Z,15.71
2022-11-17T20:18:38.720Z,15.70
2022-11-17T20:21:06.492Z,15.67
2022-11-17T20:23:35.214Z,15.72
2022-11-17T20:26:07.012Z,15.79
2022-11-17T20:28:35.663Z,15.80
2022-11-17T20:31:10.316Z,15.73
2022-11-17T20:33:38.355Z,15.25
2022-11-17T20:36:05.763Z,15.12
2022-11-17T20:38:32.497Z,15.18
2022-11-17T20:41:00.547Z,15.17
2022-11-17T20:43:28.249Z,15.02
2022-11-17T20:45:55.882Z,15.16
2022-11-17T20:48:23.565Z,15.18
2022-11-17T20:51:00.452Z,15.20
2022-11-17T20:53:28.094Z,15.18
2022-11-17T20:55:56.082Z,15.13
2022-11-17T20:58:23.768Z,15.05
2022-11-17T21:00:50.669Z,15.08
2022-11-17T21:03:17.428Z,15.14
2022-11-17T21:05:43.986Z,15.12
2022-11-17T21:08:10.595Z,15.17
2022-11-17T21:10:37.293Z,15.21
2022-11-17T21:13:03.950Z,15.11
2022-11-17T21:15:30.533Z,15.09
2022-11-17T21:18:15.582Z,15.05
2022-11-17T21:20:42.727Z,15.23
2022-11-17T21:23:09.298Z,15.11
2022-11-17T21:25:36.578Z,15.04
2022-11-17T21:28:03.248Z,15.20
2022-11-17T21:30:29.878Z,15.12
2022-11-17T21:32:56.433Z,15.12
2022-11-17T21:35:22.955Z,15.16
2022-11-17T21:37:49.563Z,15.08
2022-11-17T21:40:16.553Z,15.12
2022-11-17T21:42:44.133Z,14.97
2022-11-17T21:45:10.967Z,15.09
2022-11-17T21:47:37.579Z,14.99
2022-11-17T21:50:04.476Z,15.06
2022-11-17T21:52:31.074Z,15.06
2022-11-17T21:54:57.703Z,15.07
2022-11-17T21:57:24.308Z,15.15
2022-11-17T21:59:50.928Z,15.17
2022-11-17T22:02:17.509Z,15.26
2022-11-17T22:04:44.077Z,15.31
2022-11-17T22:07:10.714Z,15.31
2022-11-17T22:09:37.446Z,15.31
2022-11-17T22:12:04.181Z,15.31
2022-11-17T22:14:31.445Z,15.35
2022-11-17T22:16:58.028Z,15.29
2022-11-17T22:19:28.478Z,15.23
2022-11-17T22:21:55.091Z,15.27
2022-11-17T22:24:21.816Z,15.29
2022-11-17T22:26:48.851Z,15.31
2022-11-17T22:29:18.518Z,15.31
2022-11-17T22:31:46.327Z,15.16
2022-11-17T22:34:13.650Z,14.98
2022-11-17T22:36:40.251Z,14.92
2022-11-17T22:39:06.946Z,14.86
2022-11-17T22:41:33.588Z,14.80
2022-11-17T22:44:00.423Z,14.89
2022-11-17T22:46:28.069Z,14.74
2022-11-17T22:48:54.893Z,14.70
2022-11-17T22:51:40.654Z,14.58
2022-11-17T22:54:08.520Z,14.73
2022-11-17T22:56:35.968Z,14.82
2022-11-17T22:59:02.630Z,14.76
2022-11-17T23:01:29.172Z,14.64
2022-11-17T23:03:55.782Z,14.65
2022-11-17T23:06:22.753Z,14.61
2022-11-17T23:08:49.705Z,14.72
2022-11-17T23:11:36.075Z,14.70
2022-11-17T23:14:03.107Z,14.58
2022-11-17T23:16:29.981Z,14.65
2022-11-17T23:18:56.946Z,14.70
2022-11-17T23:21:23.789Z,14.75
2022-11-17T23:23:51.054Z,14.77
2022-11-17T23:26:18.049Z,14.76
2022-11-17T23:28:45.129Z,14.68
2022-11-17T23:31:13.833Z,14.61
2022-11-17T23:33:42.512Z,14.66
2022-11-17T23:36:14.044Z,14.58
2022-11-17T23:38:40.581Z,14.58
2022-11-17T23:41:10.194Z,14.57
2022-11-17T23:43:36.784Z,14.51
2022-11-17T23:46:05.729Z,14.55
2022-11-17T23:48:32.462Z,14.56
2022-11-17T23:50:59.190Z,14.52
2022-11-17T23:53:25.920Z,14.50
2022-11-17T23:55:56.484Z,14.47
2022-11-17T23:58:24.178Z,14.37
